Time;durP1;ratioP1;P1;durP2;ratioP2;P2;SDS_P1;SDS_P2;PMS_P1;PMS_P2;Temp;Humidity;BMP_temperature;BMP_pressure;BME280_temperature;BME280_humidity;BME280_pressure;Samples;Min_cycle;Max_cycle;Signal;HPM_P1;HPM_P2
2023/02/23 00:01:43;;;;;;;25.93;17.87;;;;;;;;;;5004408;28;20212;-85
2023/02/23 00:04:12;;;;;;;25.30;17.23;;;;;;;;;;5003860;28;20224;-85
2023/02/23 00:06:37;;;;;;;23.43;16.67;;;;;;;;;;4991576;28;20238;-86
2023/02/23 00:09:14;;;;;;;23.30;16.60;;;;;;;;;;5001464;28;20228;-86
2023/02/23 00:11:42;;;;;;;23.57;16.07;;;;;;;;;;5002992;28;20216;-86
2023/02/23 00:14:07;;;;;;;24.60;16.10;;;;;;;;;;4998240;28;20292;-84
2023/02/23 00:16:36;;;;;;;27.90;18.10;;;;;;;;;;5014411;28;20232;-85
2023/02/23 00:19:01;;;;;;;22.33;16.97;;;;;;;;;;4996142;28;20266;-87
2023/02/23 00:21:28;;;;;;;22.43;16.20;;;;;;;;;;5008660;28;20310;-87
2023/02/23 00:24:03;;;;;;;25.93;18.07;;;;;;;;;;5005903;28;20228;-85
2023/02/23 00:26:30;;;;;;;23.03;16.73;;;;;;;;;;4989831;28;20235;-85
2023/02/23 00:28:59;;;;;;;25.70;16.63;;;;;;;;;;5007832;28;20296;-85
2023/02/23 00:31:26;;;;;;;26.67;18.30;;;;;;;;;;5007088;28;20216;-85
2023/02/23 00:33:58;;;;;;;27.53;16.93;;;;;;;;;;4994143;28;20274;-85
2023/02/23 00:36:26;;;;;;;34.10;17.43;;;;;;;;;;5021744;28;20224;-86
2023/02/23 00:38:52;;;;;;;29.13;18.17;;;;;;;;;;4993020;28;20216;-86
2023/02/23 00:41:29;;;;;;;30.13;19.47;;;;;;;;;;5004314;28;20762;-84
2023/02/23 00:44:00;;;;;;;29.93;18.97;;;;;;;;;;4980688;28;20212;-84
2023/02/23 00:46:30;;;;;;;26.37;16.63;;;;;;;;;;5023745;28;20251;-87
2023/02/23 00:48:58;;;;;;;25.33;16.73;;;;;;;;;;4995260;28;20578;-84
2023/02/23 00:51:29;;;;;;;25.23;16.83;;;;;;;;;;5008694;28;20251;-85
2023/02/23 00:53:58;;;;;;;29.80;17.60;;;;;;;;;;4996630;28;20446;-84
2023/02/23 00:56:24;;;;;;;24.57;16.93;;;;;;;;;;4994317;28;20273;-86
2023/02/23 00:58:49;;;;;;;26.67;15.57;;;;;;;;;;4992463;28;21591;-85
2023/02/23 01:01:17;;;;;;;22.83;15.23;;;;;;;;;;5009748;28;20231;-85
2023/02/23 01:03:45;;;;;;;19.80;14.23;;;;;;;;;;4995036;28;20240;-85
2023/02/23 01:06:13;;;;;;;14.47;11.60;;;;;;;;;;4998428;28;20667;-85
2023/02/23 01:08:45;;;;;;;17.10;12.03;;;;;;;;;;5009388;28;20228;-87
2023/02/23 01:11:14;;;;;;;17.80;11.47;;;;;;;;;;5004805;28;20235;-86
2023/02/23 01:13:41;;;;;;;17.77;11.37;;;;;;;;;;4992132;28;20318;-85
2023/02/23 01:16:19;;;;;;;17.93;12.17;;;;;;;;;;4994693;28;20227;-86
2023/02/23 01:18:49;;;;;;;18.13;12.23;;;;;;;;;;5004300;28;20219;-86
2023/02/23 01:21:32;;;;;;;18.57;12.57;;;;;;;;;;4995256;28;20628;-84
2023/02/23 01:24:02;;;;;;;16.83;12.57;;;;;;;;;;5008287;28;20577;-84
2023/02/23 01:26:29;;;;;;;19.63;13.47;;;;;;;;;;4993117;28;20228;-84
2023/02/23 01:29:07;;;;;;;23.30;14.00;;;;;;;;;;5010288;28;20226;-85
2023/02/23 01:31:33;;;;;;;18.53;13.63;;;;;;;;;;5008769;28;20284;-85
2023/02/23 01:34:02;;;;;;;20.43;13.63;;;;;;;;;;5009636;28;20215;-87
2023/02/23 01:36:37;;;;;;;17.67;13.10;;;;;;;;;;5017311;28;20219;-84
2023/02/23 01:39:06;;;;;;;18.77;13.60;;;;;;;;;;5010300;28;20608;-85
2023/02/23 01:41:34;;;;;;;21.30;13.77;;;;;;;;;;4985774;28;20268;-84
2023/02/23 01:44:02;;;;;;;24.50;15.47;;;;;;;;;;4979467;28;20220;-85
2023/02/23 01:46:37;;;;;;;21.33;14.73;;;;;;;;;;4978500;28;20224;-85
2023/02/23 01:49:06;;;;;;;20.13;13.73;;;;;;;;;;5007235;28;20228;-86
2023/02/23 01:51:36;;;;;;;23.93;14.67;;;;;;;;;;4998295;28;20229;-85
2023/02/23 01:54:06;;;;;;;24.23;14.57;;;;;;;;;;4984570;28;20234;-85
2023/02/23 01:56:37;;;;;;;21.53;15.57;;;;;;;;;;5010274;28;20239;-85
2023/02/23 01:59:05;;;;;;;21.00;15.33;;;;;;;;;;4999294;28;20211;-85
2023/02/23 02:01:37;;;;;;;21.50;15.40;;;;;;;;;;4991444;28;20230;-86
2023/02/23 02:04:08;;;;;;;22.43;15.90;;;;;;;;;;5009469;28;20221;-85
2023/02/23 02:06:37;;;;;;;21.10;14.67;;;;;;;;;;5000510;28;20224;-86
2023/02/23 02:09:16;;;;;;;22.67;15.67;;;;;;;;;;4990804;28;20224;-85
2023/02/23 02:11:45;;;;;;;20.60;15.40;;;;;;;;;;5008189;28;20762;-86
2023/02/23 02:14:19;;;;;;;25.43;16.33;;;;;;;;;;4991825;28;20220;-86
2023/02/23 02:17:01;;;;;;;25.03;16.07;;;;;;;;;;4996206;28;20227;-87
2023/02/23 02:19:45;;;;;;;24.23;15.03;;;;;;;;;;5005438;28;20220;-84
2023/02/23 02:22:35;;;;;;;22.87;15.60;;;;;;;;;;5019060;28;20212;-85
2023/02/23 02:25:33;;;;;;;20.57;14.63;;;;;;;;;;5005409;28;20339;-84
2023/02/23 02:28:11;;;;;;;23.37;14.30;;;;;;;;;;5016253;28;20607;-87
2023/02/23 02:30:56;;;;;;;19.60;14.60;;;;;;;;;;5018469;28;20212;-86
2023/02/23 02:33:42;;;;;;;20.07;14.20;;;;;;;;;;5033084;28;20246;-84
2023/02/23 02:36:23;;;;;;;20.40;13.67;;;;;;;;;;5022844;28;20689;-85
2023/02/23 02:39:06;;;;;;;27.07;14.90;;;;;;;;;;5035582;28;20356;-87
2023/02/23 02:41:43;;;;;;;23.80;15.37;;;;;;;;;;5005481;28;20283;-86
2023/02/23 02:44:30;;;;;;;23.43;15.40;;;;;;;;;;5023774;28;20257;-85
2023/02/23 02:47:24;;;;;;;24.47;14.90;;;;;;;;;;5019274;28;20620;-86
2023/02/23 02:50:30;;;;;;;23.73;14.70;;;;;;;;;;5009668;28;20251;-84
2023/02/23 02:53:09;;;;;;;21.00;14.97;;;;;;;;;;5027852;28;20223;-87
2023/02/23 02:55:36;;;;;;;26.57;16.10;;;;;;;;;;4994201;28;20224;-86
2023/02/23 02:58:08;;;;;;;31.30;18.53;;;;;;;;;;5010051;28;20212;-86
2023/02/23 04:18:26;;;;;;;36.67;17.70;;;;;;;;;;5022708;28;20227;-87
2023/02/23 04:20:55;;;;;;;48.50;16.97;;;;;;;;;;5022875;28;20216;-86
2023/02/23 04:23:21;;;;;;;32.97;16.80;;;;;;;;;;5023137;28;20235;-87
2023/02/23 04:25:48;;;;;;;30.47;17.30;;;;;;;;;;5009519;28;20204;-87
2023/02/23 04:28:14;;;;;;;28.90;17.73;;;;;;;;;;4989679;28;20234;-87
2023/02/23 04:30:40;;;;;;;35.63;19.07;;;;;;;;;;5018544;28;20239;-86
2023/02/23 04:33:08;;;;;;;31.13;18.10;;;;;;;;;;5015027;28;20252;-88
2023/02/23 04:35:34;;;;;;;32.07;18.53;;;;;;;;;;5011286;28;20281;-88
2023/02/23 04:38:02;;;;;;;35.23;20.03;;;;;;;;;;5000049;28;20212;-88
2023/02/23 04:40:27;;;;;;;37.83;20.57;;;;;;;;;;5004097;28;20220;-87
2023/02/23 04:42:53;;;;;;;38.23;21.20;;;;;;;;;;5007093;28;20223;-87
2023/02/23 04:45:18;;;;;;;39.73;21.80;;;;;;;;;;5012951;28;20268;-87
2023/02/23 04:47:46;;;;;;;34.23;20.77;;;;;;;;;;4994218;28;20298;-86
2023/02/23 04:50:15;;;;;;;39.30;20.00;;;;;;;;;;4983212;28;20224;-87
2023/02/23 04:52:42;;;;;;;34.70;20.27;;;;;;;;;;5010078;28;20398;-86
2023/02/23 04:55:18;;;;;;;37.73;20.03;;;;;;;;;;5009005;28;20219;-87
2023/02/23 04:57:46;;;;;;;35.10;19.90;;;;;;;;;;5007886;28;20220;-86
2023/02/23 05:00:15;;;;;;;31.03;19.50;;;;;;;;;;4993965;28;20211;-87
2023/02/23 05:02:44;;;;;;;35.47;18.63;;;;;;;;;;5009385;28;20323;-88
2023/02/23 05:05:10;;;;;;;31.93;19.20;;;;;;;;;;5011551;28;20685;-87
2023/02/23 05:07:41;;;;;;;35.13;20.27;;;;;;;;;;4997488;28;20238;-88
2023/02/23 05:10:12;;;;;;;34.63;20.80;;;;;;;;;;5008284;28;20291;-86
2023/02/23 05:12:40;;;;;;;33.47;20.70;;;;;;;;;;4995870;28;20231;-87
2023/02/23 05:15:11;;;;;;;33.03;20.50;;;;;;;;;;5007714;28;20216;-87
2023/02/23 05:17:42;;;;;;;39.40;22.30;;;;;;;;;;4991562;28;20228;-85
2023/02/23 05:20:11;;;;;;;35.40;20.60;;;;;;;;;;4980919;28;20211;-86
2023/02/23 05:22:37;;;;;;;37.63;22.10;;;;;;;;;;4993253;28;20219;-88
2023/02/23 05:25:03;;;;;;;38.03;23.00;;;;;;;;;;4992507;28;20329;-86
2023/02/23 05:27:29;;;;;;;36.37;23.17;;;;;;;;;;5008341;28;20689;-88
2023/02/23 05:29:57;;;;;;;33.93;23.17;;;;;;;;;;4991564;28;20223;-87
2023/02/23 05:32:22;;;;;;;37.23;25.00;;;;;;;;;;4992901;28;20231;-87
2023/02/23 05:34:52;;;;;;;42.97;26.63;;;;;;;;;;4992307;28;20219;-87
2023/02/23 05:37:21;;;;;;;38.67;24.93;;;;;;;;;;4989396;28;20247;-87
2023/02/23 05:39:49;;;;;;;40.00;25.10;;;;;;;;;;4996029;28;20278;-88
2023/02/23 05:42:19;;;;;;;45.80;26.37;;;;;;;;;;5006487;28;20247;-88
2023/02/23 05:44:44;;;;;;;39.40;27.20;;;;;;;;;;4978284;28;20251;-88
2023/02/23 05:47:12;;;;;;;44.73;27.83;;;;;;;;;;4983111;28;20216;-86
2023/02/23 05:49:38;;;;;;;47.47;29.50;;;;;;;;;;4989505;28;20267;-87
2023/02/23 05:52:05;;;;;;;47.27;30.97;;;;;;;;;;4975413;28;20212;-87
2023/02/23 05:54:33;;;;;;;49.17;30.80;;;;;;;;;;5008107;28;20713;-87
2023/02/23 05:57:01;;;;;;;48.83;31.20;;;;;;;;;;5007503;28;20242;-86
2023/02/23 05:59:30;;;;;;;51.10;29.90;;;;;;;;;;5008789;28;20216;-86
2023/02/23 06:01:58;;;;;;;44.63;28.97;;;;;;;;;;5010233;28;20229;-88
2023/02/23 06:04:23;;;;;;;48.00;29.87;;;;;;;;;;5022495;28;20291;-88
2023/02/23 06:06:51;;;;;;;43.77;29.13;;;;;;;;;;5002994;28;20231;-88
2023/02/23 06:09:16;;;;;;;49.43;30.60;;;;;;;;;;5001158;28;20244;-88
2023/02/23 06:11:44;;;;;;;44.40;30.20;;;;;;;;;;5009213;28;20224;-86
2023/02/23 06:14:10;;;;;;;47.27;30.33;;;;;;;;;;5011976;28;20220;-86
2023/02/23 06:16:35;;;;;;;46.47;29.57;;;;;;;;;;4986453;28;20281;-88
2023/02/23 06:19:01;;;;;;;42.17;29.87;;;;;;;;;;5025338;28;20230;-88
2023/02/23 06:21:26;;;;;;;45.50;31.70;;;;;;;;;;4992321;28;20243;-87
2023/02/23 06:23:52;;;;;;;44.03;30.33;;;;;;;;;;5008847;28;20240;-87
2023/02/23 06:26:18;;;;;;;48.47;30.83;;;;;;;;;;5013681;28;20236;-87
2023/02/23 06:28:44;;;;;;;46.03;32.43;;;;;;;;;;4977140;28;20310;-87
2023/02/23 06:31:14;;;;;;;45.30;29.70;;;;;;;;;;4992313;28;20224;-87
2023/02/23 06:33:40;;;;;;;43.20;31.50;;;;;;;;;;5010864;28;20228;-88
2023/02/23 06:36:07;;;;;;;48.70;37.23;;;;;;;;;;4983751;28;20311;-88
2023/02/23 06:38:32;;;;;;;46.47;33.30;;;;;;;;;;5007715;28;20248;-88
2023/02/23 06:41:00;;;;;;;48.53;31.47;;;;;;;;;;4992016;28;20251;-89
2023/02/23 06:43:29;;;;;;;47.97;31.87;;;;;;;;;;4974950;28;20231;-89
2023/02/23 06:45:57;;;;;;;38.07;30.33;;;;;;;;;;5009030;28;20700;-88
2023/02/23 06:48:22;;;;;;;42.33;31.53;;;;;;;;;;4995605;28;20286;-88
2023/02/23 06:50:48;;;;;;;45.03;30.80;;;;;;;;;;4990774;28;20512;-88
2023/02/23 06:53:14;;;;;;;43.40;31.23;;;;;;;;;;4986316;28;20221;-88
2023/02/23 06:55:39;;;;;;;46.60;32.80;;;;;;;;;;5003143;28;20230;-88
2023/02/23 06:58:07;;;;;;;44.13;31.00;;;;;;;;;;5007899;28;20295;-88
2023/02/23 07:00:32;;;;;;;43.90;31.70;;;;;;;;;;4981001;28;20248;-89
2023/02/23 07:02:59;;;;;;;44.40;31.00;;;;;;;;;;5021630;28;20706;-89
2023/02/23 07:05:25;;;;;;;44.00;32.83;;;;;;;;;;4978210;28;20224;-89
2023/02/23 07:07:50;;;;;;;49.20;33.43;;;;;;;;;;4982095;28;20228;-88
2023/02/23 07:10:17;;;;;;;44.80;32.23;;;;;;;;;;4994539;28;20579;-88
2023/02/23 07:12:42;;;;;;;49.50;33.10;;;;;;;;;;5029678;28;20234;-88
2023/02/23 07:15:11;;;;;;;44.60;30.53;;;;;;;;;;4992418;28;20220;-90
2023/02/23 07:17:39;;;;;;;38.10;30.10;;;;;;;;;;4991228;28;20239;-89
2023/02/23 07:20:05;;;;;;;37.63;30.83;;;;;;;;;;4980034;28;20220;-89
2023/02/23 07:22:30;;;;;;;39.23;30.57;;;;;;;;;;4993621;28;20216;-88
2023/02/23 07:24:59;;;;;;;40.07;28.77;;;;;;;;;;5004519;28;20293;-89
2023/02/23 07:27:26;;;;;;;41.50;30.27;;;;;;;;;;4994007;28;20223;-89
2023/02/23 07:29:52;;;;;;;39.73;29.80;;;;;;;;;;4979341;28;20740;-89
2023/02/23 07:32:19;;;;;;;43.30;30.53;;;;;;;;;;5015586;28;20238;-89
2023/02/23 07:34:46;;;;;;;37.17;30.43;;;;;;;;;;5029221;28;20314;-89
2023/02/23 07:37:12;;;;;;;40.67;30.57;;;;;;;;;;5026755;28;20232;-89
2023/02/23 07:39:38;;;;;;;43.43;31.23;;;;;;;;;;5011508;28;20286;-89
2023/02/23 07:42:04;;;;;;;37.40;30.30;;;;;;;;;;5010555;28;20230;-89
2023/02/23 07:44:30;;;;;;;51.07;41.57;;;;;;;;;;5026000;28;20220;-87
2023/02/23 07:46:56;;;;;;;44.03;38.30;;;;;;;;;;5011686;28;20216;-89
2023/02/23 07:49:24;;;;;;;44.00;33.60;;;;;;;;;;5015601;28;20220;-88
2023/02/23 07:51:49;;;;;;;42.20;32.43;;;;;;;;;;5011165;28;20696;-89
2023/02/23 07:54:16;;;;;;;49.60;37.20;;;;;;;;;;5009147;28;20220;-89
2023/02/23 07:56:42;;;;;;;59.27;48.97;;;;;;;;;;5007177;28;20322;-89
2023/02/23 07:59:08;;;;;;;52.83;43.00;;;;;;;;;;5005881;28;20220;-90
2023/02/23 08:01:34;;;;;;;46.63;35.73;;;;;;;;;;5009340;28;20219;-89
2023/02/23 08:04:00;;;;;;;39.87;31.27;;;;;;;;;;4992855;28;20306;-89
2023/02/23 08:06:27;;;;;;;43.10;30.53;;;;;;;;;;5008404;28;20258;-89
2023/02/23 08:08:52;;;;;;;47.23;32.90;;;;;;;;;;5007432;28;20229;-89
2023/02/23 08:11:18;;;;;;;48.70;32.77;;;;;;;;;;5004281;28;20227;-89
2023/02/23 08:13:44;;;;;;;53.10;33.53;;;;;;;;;;5005297;28;20221;-89
2023/02/23 08:16:11;;;;;;;49.70;33.23;;;;;;;;;;5024790;28;20251;-89
2023/02/23 08:18:37;;;;;;;56.27;35.67;;;;;;;;;;5007219;28;20208;-88
2023/02/23 08:21:03;;;;;;;51.33;33.40;;;;;;;;;;4997208;28;20232;-89
2023/02/23 08:23:30;;;;;;;56.60;36.33;;;;;;;;;;4987507;28;20244;-88
2023/02/23 08:25:56;;;;;;;54.90;34.97;;;;;;;;;;5026310;28;20307;-88
2023/02/23 08:28:24;;;;;;;58.87;36.70;;;;;;;;;;4990897;28;20228;-89
2023/02/23 08:30:49;;;;;;;67.87;37.00;;;;;;;;;;4992007;28;20255;-89
2023/02/23 08:33:15;;;;;;;68.97;39.07;;;;;;;;;;5006694;28;20705;-89
2023/02/23 08:35:40;;;;;;;70.67;39.63;;;;;;;;;;4977850;28;20277;-88
2023/02/23 08:38:06;;;;;;;70.03;40.00;;;;;;;;;;5000597;28;20227;-87
2023/02/23 08:40:32;;;;;;;69.80;40.63;;;;;;;;;;5008217;28;20217;-87
2023/02/23 08:42:57;;;;;;;72.07;41.07;;;;;;;;;;4991909;28;20221;-87
2023/02/23 08:45:23;;;;;;;72.47;41.03;;;;;;;;;;5004747;28;20232;-87
2023/02/23 08:47:49;;;;;;;65.33;40.73;;;;;;;;;;4987115;28;20228;-87
2023/02/23 08:50:14;;;;;;;70.83;39.97;;;;;;;;;;5001848;28;20228;-88
2023/02/23 08:52:42;;;;;;;66.23;39.27;;;;;;;;;;4971025;28;20246;-87
2023/02/23 08:55:10;;;;;;;66.33;39.07;;;;;;;;;;5015186;28;20211;-88
2023/02/23 08:57:36;;;;;;;67.70;40.20;;;;;;;;;;5001916;28;20227;-86
2023/02/23 09:00:12;;;;;;;62.13;38.63;;;;;;;;;;5020426;28;20220;-87
2023/02/23 09:02:40;;;;;;;68.67;39.10;;;;;;;;;;5003909;28;20227;-88
2023/02/23 09:05:06;;;;;;;56.83;37.80;;;;;;;;;;5001558;28;20243;-88
2023/02/23 09:07:36;;;;;;;69.03;39.87;;;;;;;;;;5008351;28;20221;-89
2023/02/23 09:10:02;;;;;;;61.93;38.37;;;;;;;;;;5023544;28;20288;-88
2023/02/23 09:12:28;;;;;;;60.17;35.87;;;;;;;;;;4995139;28;20247;-85
2023/02/23 09:14:53;;;;;;;60.57;37.17;;;;;;;;;;5018175;28;20340;-88
2023/02/23 09:17:20;;;;;;;61.87;37.30;;;;;;;;;;5001142;28;20231;-88
2023/02/23 09:19:45;;;;;;;63.70;38.17;;;;;;;;;;4968927;28;20224;-89
2023/02/23 09:22:11;;;;;;;57.80;36.40;;;;;;;;;;4991700;28;20277;-88
2023/02/23 09:24:37;;;;;;;59.43;37.07;;;;;;;;;;4988834;28;20228;-88
2023/02/23 09:27:03;;;;;;;59.33;36.67;;;;;;;;;;4981385;28;20263;-89
2023/02/23 09:29:29;;;;;;;59.93;37.37;;;;;;;;;;4993592;28;20221;-87
2023/02/23 09:31:56;;;;;;;54.97;35.40;;;;;;;;;;5007523;28;20620;-88
2023/02/23 09:34:21;;;;;;;55.17;36.10;;;;;;;;;;5022063;28;20657;-88
2023/02/23 09:36:47;;;;;;;58.07;34.33;;;;;;;;;;4936117;28;1159645;-87
2023/02/23 09:39:13;;;;;;;52.87;35.37;;;;;;;;;;4989373;28;20228;-89
2023/02/23 09:41:41;;;;;;;58.77;36.23;;;;;;;;;;4995188;28;20216;-87
2023/02/23 09:44:37;;;;;;;58.47;35.40;;;;;;;;;;5027075;28;20231;-89
2023/02/23 09:47:39;;;;;;;57.97;36.03;;;;;;;;;;5045375;28;20220;-88
2023/02/23 09:50:11;;;;;;;52.60;36.27;;;;;;;;;;5018675;28;20231;-89
2023/02/23 09:52:43;;;;;;;58.03;37.13;;;;;;;;;;5007238;28;20235;-87
2023/02/23 09:55:11;;;;;;;58.87;37.03;;;;;;;;;;5012921;28;20228;-87
2023/02/23 09:57:39;;;;;;;57.17;36.80;;;;;;;;;;5048745;28;20226;-89
2023/02/23 10:00:30;;;;;;;54.07;36.73;;;;;;;;;;5016025;28;20220;-86
2023/02/23 10:03:12;;;;;;;50.10;36.33;;;;;;;;;;5000853;28;20220;-88
2023/02/23 10:06:00;;;;;;;52.93;37.00;;;;;;;;;;4996911;28;20228;-83
2023/02/23 10:08:37;;;;;;;58.97;36.23;;;;;;;;;;5013968;28;20230;-87
2023/02/23 10:11:08;;;;;;;52.90;36.77;;;;;;;;;;5004408;28;20212;-88
2023/02/23 10:13:54;;;;;;;49.77;34.50;;;;;;;;;;5011367;28;20592;-88
2023/02/23 10:16:38;;;;;;;51.70;35.23;;;;;;;;;;5026752;28;20243;-87
2023/02/23 10:19:13;;;;;;;53.90;36.43;;;;;;;;;;5007262;28;20216;-88
2023/02/23 10:21:41;;;;;;;50.90;36.30;;;;;;;;;;4999874;28;20216;-88
2023/02/23 10:24:18;;;;;;;55.00;37.47;;;;;;;;;;4996474;28;20209;-89
2023/02/23 10:26:54;;;;;;;48.43;34.33;;;;;;;;;;5018893;28;20805;-89
2023/02/23 10:29:22;;;;;;;52.73;35.27;;;;;;;;;;5005333;28;20702;-88
2023/02/23 10:31:53;;;;;;;51.80;34.17;;;;;;;;;;4972904;28;20216;-89
2023/02/23 10:34:21;;;;;;;57.30;36.23;;;;;;;;;;4999945;28;20254;-89
2023/02/23 10:37:02;;;;;;;55.77;37.30;;;;;;;;;;5009872;28;20235;-88
2023/02/23 10:39:29;;;;;;;52.27;35.83;;;;;;;;;;5020791;28;20755;-89
2023/02/23 10:41:57;;;;;;;54.40;36.97;;;;;;;;;;5002149;28;20760;-88
2023/02/23 10:44:23;;;;;;;49.47;35.47;;;;;;;;;;5011253;28;20251;-88
2023/02/23 10:47:04;;;;;;;54.67;35.77;;;;;;;;;;5000707;28;20224;-88
2023/02/23 10:49:56;;;;;;;47.80;34.63;;;;;;;;;;5026990;28;20242;-88
2023/02/23 10:52:45;;;;;;;54.17;34.50;;;;;;;;;;5003052;28;20228;-89
2023/02/23 10:55:26;;;;;;;45.73;33.23;;;;;;;;;;5003515;28;20231;-89
2023/02/23 10:58:17;;;;;;;49.40;34.13;;;;;;;;;;5025128;28;20221;-87
2023/02/23 11:00:56;;;;;;;43.93;32.13;;;;;;;;;;4997333;28;20224;-88
2023/02/23 11:03:28;;;;;;;51.27;31.67;;;;;;;;;;5033811;28;20227;-88
2023/02/23 11:05:54;;;;;;;47.67;30.60;;;;;;;;;;5009743;28;20228;-88
2023/02/23 11:08:25;;;;;;;40.97;32.03;;;;;;;;;;5016062;28;20708;-89
2023/02/23 11:10:57;;;;;;;44.43;31.90;;;;;;;;;;5001173;28;20232;-88
2023/02/23 11:13:27;;;;;;;45.50;30.10;;;;;;;;;;4984944;28;20235;-88
2023/02/23 11:16:00;;;;;;;43.30;29.33;;;;;;;;;;5013923;28;20204;-87
2023/02/23 11:18:26;;;;;;;45.23;30.50;;;;;;;;;;5004917;28;20216;-87
2023/02/23 11:20:54;;;;;;;45.20;29.10;;;;;;;;;;5032824;28;20225;-88
2023/02/23 11:23:27;;;;;;;45.50;28.97;;;;;;;;;;5013751;28;20219;-88
2023/02/23 11:25:54;;;;;;;37.50;26.03;;;;;;;;;;5020717;28;20626;-89
2023/02/23 11:28:40;;;;;;;42.40;27.60;;;;;;;;;;5025562;28;20224;-87
2023/02/23 11:31:14;;;;;;;41.17;27.80;;;;;;;;;;4993999;28;20221;-89
2023/02/23 11:33:42;;;;;;;39.13;27.13;;;;;;;;;;4995952;28;20216;-90
2023/02/23 11:36:21;;;;;;;40.13;26.80;;;;;;;;;;5002559;28;20315;-89
2023/02/23 11:39:08;;;;;;;40.90;26.80;;;;;;;;;;5025870;28;20228;-89
2023/02/23 11:41:36;;;;;;;37.47;26.77;;;;;;;;;;5020072;28;20231;-89
2023/02/23 11:44:05;;;;;;;38.40;26.83;;;;;;;;;;4980336;28;20251;-88
2023/02/23 11:46:36;;;;;;;37.60;26.77;;;;;;;;;;4987695;28;20247;-90
2023/02/23 11:49:05;;;;;;;43.07;28.17;;;;;;;;;;5002187;28;20221;-90
2023/02/23 11:51:40;;;;;;;40.73;27.00;;;;;;;;;;4990941;28;20295;-90
2023/02/23 11:54:09;;;;;;;43.00;28.87;;;;;;;;;;4998216;28;20311;-90
2023/02/23 11:56:34;;;;;;;45.97;27.77;;;;;;;;;;4996451;28;20254;-90
2023/02/23 11:59:09;;;;;;;43.47;28.00;;;;;;;;;;5015306;28;20224;-88
2023/02/23 12:01:45;;;;;;;49.10;29.63;;;;;;;;;;4999801;28;20224;-90
2023/02/23 12:04:29;;;;;;;49.10;29.73;;;;;;;;;;5015145;28;20227;-88
2023/02/23 12:07:15;;;;;;;42.67;28.70;;;;;;;;;;5029725;28;20246;-89
2023/02/23 12:09:41;;;;;;;48.03;29.43;;;;;;;;;;4991160;28;20259;-89
2023/02/23 12:12:11;;;;;;;44.53;28.63;;;;;;;;;;5022054;28;20219;-90
2023/02/23 12:14:48;;;;;;;46.37;30.17;;;;;;;;;;5007375;28;20231;-89
2023/02/23 12:17:21;;;;;;;58.50;36.77;;;;;;;;;;4990173;28;20256;-88
2023/02/23 12:19:50;;;;;;;56.57;36.30;;;;;;;;;;5001417;28;20224;-88
2023/02/23 12:22:26;;;;;;;57.07;34.40;;;;;;;;;;4979861;28;20284;-87
2023/02/23 12:24:51;;;;;;;64.73;36.43;;;;;;;;;;4995342;28;20298;-88
2023/02/23 12:27:25;;;;;;;64.00;38.83;;;;;;;;;;4992016;28;20220;-89
2023/02/23 12:30:20;;;;;;;58.70;31.30;;;;;;;;;;5019718;28;20228;-90
2023/02/23 12:32:52;;;;;;;66.73;42.03;;;;;;;;;;5025170;28;20761;-89
2023/02/23 12:35:38;;;;;;;75.10;45.03;;;;;;;;;;5013969;28;20207;-89
2023/02/23 12:38:11;;;;;;;52.90;32.10;;;;;;;;;;5023777;28;20580;-90
2023/02/23 12:40:40;;;;;;;54.43;31.63;;;;;;;;;;5012259;28;20426;-89
2023/02/23 12:43:19;;;;;;;54.30;32.33;;;;;;;;;;4990999;28;20223;-88
2023/02/23 12:45:52;;;;;;;62.17;35.93;;;;;;;;;;5003752;28;20707;-88
2023/02/23 12:48:51;;;;;;;62.73;31.77;;;;;;;;;;4994103;28;20240;-89
2023/02/23 12:51:35;;;;;;;53.10;30.53;;;;;;;;;;5034701;28;20600;-89
2023/02/23 13:09:42;;;;;;;48.90;29.93;;;;;;;;;;5330824;23;20308;-76
2023/02/23 13:12:35;;;;;;;53.03;30.03;;;;;;;;;;4971186;28;20228;-77
2023/02/23 13:15:18;;;;;;;54.17;28.77;;;;;;;;;;4983700;28;20293;-76
2023/02/23 13:17:52;;;;;;;45.50;28.93;;;;;;;;;;4980279;28;20688;-75
2023/02/23 13:20:55;;;;;;;58.27;30.43;;;;;;;;;;4979793;28;20320;-75
2023/02/23 13:24:04;;;;;;;44.77;28.00;;;;;;;;;;4908516;29;20792;-76
2023/02/23 13:39:09;;;;;;;43.23;24.60;;;;;;;;;;4951440;28;20227;-87
2023/02/23 13:42:16;;;;;;;;;;;;;;;;;;;;;
2023/02/23 13:45:41;;;;;;;36.60;23.63;;;;;;;;;;5003305;28;20754;-86
2023/02/23 13:49:01;;;;;;;42.20;23.13;;;;;;;;;;4975012;28;20377;-87
2023/02/23 13:51:59;;;;;;;;;;;;;;;;;;;;;
2023/02/23 13:55:01;;;;;;;37.63;21.97;;;;;;;;;;4986722;28;20285;-88
2023/02/23 13:58:14;;;;;;;39.47;21.50;;;;;;;;;;4964008;28;20228;-86
2023/02/23 14:01:27;;;;;;;;;;;;;;;;;;;;;
2023/02/23 14:05:17;;;;;;;;;;;;;;;;;;;;;
2023/02/23 14:08:59;;;;;;;34.57;20.20;;;;;;;;;;4983558;28;20233;-87
2023/02/23 14:12:25;;;;;;;;;;;;;;;;;;;;;
2023/02/23 14:16:10;;;;;;;;;;;;;;;;;;;;;
2023/02/23 14:19:18;;;;;;;;;;;;;;;;;;;;;
2023/02/23 14:22:39;;;;;;;45.08;26.52;;;;;;;;;;4993510;28;20560;-87
2023/02/23 14:25:43;;;;;;;;;;;;;;;;;;;;;
2023/02/23 14:32:28;;;;;;;;;;;;;;;;;;;;;
2023/02/23 14:38:46;;;;;;;44.30;24.03;;;;;;;;;;4921322;28;20226;-90
2023/02/23 14:42:04;;;;;;;;;;;;;;;;;;;;;
2023/02/23 14:45:49;;;;;;;;;;;;;;;;;;;;;
2023/02/23 14:48:56;;;;;;;;;;;;;;;;;;;;;
2023/02/23 14:52:29;;;;;;;62.67;30.63;;;;;;;;;;4973852;28;20656;-88
2023/02/23 14:58:59;;;;;;;;;;;;;;;;;;;;;
2023/02/23 15:10:32;;;;;;;;;;;;;;;;;;;;;
2023/02/23 15:13:28;;;;;;;61.33;30.57;;;;;;;;;;4977374;28;20224;-88
2023/02/23 15:16:56;;;;;;;;;;;;;;;;;;;;;
2023/02/23 15:20:19;;;;;;;;;;;;;;;;;;;;;
2023/02/23 15:23:26;;;;;;;;;;;;;;;;;;;;;
2023/02/23 15:27:27;;;;;;;;;;;;;;;;;;;;;
2023/02/23 15:31:11;;;;;;;69.10;32.63;;;;;;;;;;4982275;28;20251;-88
2023/02/23 15:34:44;;;;;;;;;;;;;;;;;;;;;
2023/02/23 15:37:53;;;;;;;;;;;;;;;;;;;;;
2023/02/23 15:41:24;;;;;;;;;;;;;;;;;;;;;
2023/02/23 15:44:37;;;;;;;;;;;;;;;;;;;;;
2023/02/23 15:47:46;;;;;;;80.63;34.60;;;;;;;;;;4968503;28;20328;-88
2023/02/23 15:51:15;;;;;;;;;;;;;;;;;;;;;
2023/02/23 15:54:04;;;;;;;85.00;35.47;;;;;;;;;;4950678;28;20241;-88
2023/02/23 16:04:13;;;;;;;77.83;36.03;;;;;;;;;;4982513;28;20228;-88
2023/02/23 16:07:31;;;;;;;73.47;35.23;;;;;;;;;;4971385;28;20255;-86
2023/02/23 16:10:44;;;;;;;85.20;35.60;;;;;;;;;;4995255;28;20233;-88
2023/02/23 16:14:12;;;;;;;79.17;34.77;;;;;;;;;;4939245;28;20231;-88
2023/02/23 16:17:09;;;;;;;83.23;35.77;;;;;;;;;;4839291;29;20296;-87
2023/02/23 16:20:15;;;;;;;83.07;35.70;;;;;;;;;;4879620;29;20239;-89
2023/02/23 16:23:23;;;;;;;;;;;;;;;;;;;;;
2023/02/23 16:26:56;;;;;;;;;;;;;;;;;;;;;
2023/02/23 16:30:19;;;;;;;72.53;34.93;;;;;;;;;;4932431;28;20600;-87
2023/02/23 16:33:40;;;;;;;;;;;;;;;;;;;;;
2023/02/23 16:37:53;;;;;;;;;;;;;;;;;;;;;
2023/02/23 16:43:38;;;;;;;;;;;;;;;;;;;;;
2023/02/23 16:50:01;;;;;;;;;;;;;;;;;;;;;
2023/02/23 16:53:06;;;;;;;;;;;;;;;;;;;;;
2023/02/23 16:56:37;;;;;;;;;;;;;;;;;;;;;
2023/02/23 16:59:42;;;;;;;;;;;;;;;;;;;;;
2023/02/23 17:02:37;;;;;;;82.27;35.87;;;;;;;;;;4950961;28;20230;-88
2023/02/23 17:06:01;;;;;;;;;;;;;;;;;;;;;
2023/02/23 17:09:39;;;;;;;77.00;35.60;;;;;;;;;;4938678;28;20227;-86
2023/02/23 17:12:20;;;;;;;70.70;34.23;;;;;;;;;;4930888;28;21537;-88
2023/02/23 17:18:35;;;;;;;83.40;36.17;;;;;;;;;;4941006;28;20254;-88
2023/02/23 17:21:39;;;;;;;;;;;;;;;;;;;;;
2023/02/23 17:25:02;;;;;;;;;;;;;;;;;;;;;
2023/02/23 17:27:57;;;;;;;70.97;34.40;;;;;;;;;;4999399;28;20228;-87
2023/02/23 17:31:06;;;;;;;;;;;;;;;;;;;;;
2023/02/23 17:37:06;;;;;;;;;;;;;;;;;;;;;
2023/02/23 17:40:35;;;;;;;;;;;;;;;;;;;;;
2023/02/23 17:43:41;;;;;;;;;;;;;;;;;;;;;
2023/02/23 17:46:10;;;;;;;50.47;22.20;;;;;;;;;;5018266;28;20224;-88
2023/02/23 17:48:35;;;;;;;33.67;13.80;;;;;;;;;;4987147;28;20228;-85
2023/02/23 17:51:09;;;;;;;30.80;11.23;;;;;;;;;;5005541;28;20642;-83
2023/02/23 17:53:34;;;;;;;28.03;10.37;;;;;;;;;;4983962;28;20813;-87
2023/02/23 17:56:00;;;;;;;39.20;14.33;;;;;;;;;;4981315;28;20232;-83
2023/02/23 17:58:29;;;;;;;33.70;11.53;;;;;;;;;;5008526;28;20272;-85
2023/02/23 18:04:14;;;;;;;22.70;12.10;;;;;;;;;;4970277;28;20301;-88
2023/02/23 18:06:45;;;;;;;23.90;8.80;;;;;;;;;;4981879;28;20296;-88
2023/02/23 18:09:13;;;;;;;20.87;7.37;;;;;;;;;;5010255;28;20236;-86
2023/02/23 18:11:39;;;;;;;19.17;6.30;;;;;;;;;;5003037;28;20237;-86
2023/02/23 18:14:04;;;;;;;21.37;6.03;;;;;;;;;;4986167;28;20228;-86
2023/02/23 18:16:32;;;;;;;22.17;5.97;;;;;;;;;;4969653;28;20229;-88
2023/02/23 18:18:57;;;;;;;22.90;5.53;;;;;;;;;;4985420;28;20224;-88
2023/02/23 18:21:23;;;;;;;18.93;5.10;;;;;;;;;;5001497;28;20724;-88
2023/02/23 18:23:51;;;;;;;11.87;3.47;;;;;;;;;;4995568;28;20224;-89
2023/02/23 18:26:18;;;;;;;19.27;4.17;;;;;;;;;;4982337;28;20216;-87
2023/02/23 18:28:45;;;;;;;16.13;4.60;;;;;;;;;;4990222;28;20225;-88
2023/02/23 18:31:15;;;;;;;16.17;4.00;;;;;;;;;;5000392;28;20221;-88
2023/02/23 18:33:41;;;;;;;19.80;3.90;;;;;;;;;;4988347;28;20235;-87